• Join FlightAware (Why Join?)
  • Login
  • US Flag 
08:37AM EDT


 

Airport Tracker/Info


-or-


 

Live Flight TrackerFlight Track Log ✈ UCA597 ✈ 16-Sep-2013 ✈ KIAD - KBGM

Flight Track Log - Related Links

Times and Time Zones

All times are in EDT time to prevent confusion due to time zone crossing. See the UCA597 flight status page for this flight to view local times or setup timezone preferences in your user account.

Time Position Orientation Groundspeed Altitude Reporting Facility
EDT Latitude Longitude Course Direction KTS MPH feet Rate Location/Type
05:49PM 38.9833 -77.4667 345° North 159 183 2,300  Level Potomac TRACON
05:50PM 39.0333 -77.4833 345° North 171 197 4,000 1,620 Climbing Potomac TRACON
05:51PM 39.0667 -77.5167 322° Northwest 165 190 5,600 1,440 Climbing Potomac TRACON
05:53PM 39.1792 -77.5247 357° North 167 192 8,900 1,320 Climbing Washington Center
05:54PM 39.2253 -77.5153 North 162 186 10,100 1,080 Climbing Washington Center
05:55PM 39.2775 -77.5058 North 167 192 11,100 420 Climbing Washington Center
05:57PM 39.3339 -77.4994 North 185 213 11,000 -60 Descending Washington Center
05:57PM 39.3836 -77.5194 343° North 192 221 11,000 -360 Level Washington Center
05:58PM 39.3594 -77.5939 247° West 143 165 10,400 -1,200 Descending Washington Center
05:59PM 39.2961 -77.6514 215° Southwest 203 234 8,700 -720 Descending Washington Center
06:01PM 39.2572 -77.6259 153° Southeast  Level FlightAware Approximate
06:02PM 39.1333 -77.6833 153° Southeast 268 308 8,000  Level Potomac TRACON
06:03PM 39.0500 -77.6667 171° South 275 316 7,000 -600 Descending Potomac TRACON
06:04PM 38.9833 -77.6500 169° South 245 282 6,800 -540 Descending Potomac TRACON
06:05PM 38.9167 -77.6167 159° South 251 289 6,000 -420 Descending Potomac TRACON
06:06PM 38.8500 -77.5833 159° South 256 295 6,000 -600 Level Potomac TRACON
06:07PM 38.7833 -77.5833 180° South 237 273 4,800 -1,260 Descending Potomac TRACON
06:08PM 38.7167 -77.5667 169° South 247 284 3,500 -900 Descending Potomac TRACON
06:09PM 38.7167 -77.5000 90° East 196 226 3,000 -300 Descending Potomac TRACON
06:10PM 38.7667 -77.4667 27° Northeast 174 200 3,000 -60 Level Potomac TRACON
06:11PM 38.8000 -77.4667 360° North 150 173 2,900 -540 Descending Potomac TRACON
06:12PM 38.8500 -77.4667 360° North 165 190 2,000 -840 Descending Potomac TRACON
06:13PM 38.8833 -77.4667 360° North 132 152 1,300 -720 Descending Potomac TRACON
06:14PM 38.9167 -77.4667 360° North 132 152 600 -720 Descending Potomac TRACON
06:16PM 38.9333 -77.4500 10° North  Level FlightAware Approximate
06:23PM 39.2658 -77.3075 10° North  Level Estimated
06:24PM 39.3133 -77.2870 10° North  Level Estimated
06:25PM 39.3608 -77.2665 10° North  Level Estimated
06:26PM 39.4082 -77.2460 10° North  Level Estimated
06:27PM 39.4557 -77.2254 10° North  Level Estimated
06:28PM 39.5032 -77.2048 10° North  Level Estimated
06:29PM 39.5507 -77.1842 10° North  Level Estimated
06:30PM 39.5981 -77.1636 10° North  Level Estimated
06:31PM 39.6456 -77.1429 10° North  Level Estimated
06:32PM 39.6930 -77.1222 10° North  Level Estimated
06:33PM 39.7405 -77.1015 10° North  Level Estimated
06:34PM 39.7879 -77.0807 10° North  Level Estimated
06:35PM 39.8354 -77.0600 10° North  Level Estimated
06:36PM 39.8828 -77.0392 10° North  Level Estimated
06:37PM 39.9302 -77.0183 10° North  Level Estimated
06:38PM 39.9777 -76.9975 10° North  Level Estimated
06:39PM 40.0251 -76.9765 10° North  Level Estimated
06:40PM 40.0725 -76.9556 10° North  Level Estimated
06:41PM 40.1199 -76.9347 10° North  Level Estimated
06:42PM 40.1674 -76.9137 10° North  Level Estimated
06:43PM 40.2148 -76.8927 10° North  Level Estimated
06:44PM 40.2622 -76.8716 10° North  Level Estimated
06:45PM 40.3096 -76.8506 10° North  Level Estimated
06:46PM 40.3570 -76.8295 10° North  Level Estimated
06:47PM 40.4044 -76.8083 10° North  Level Estimated
06:48PM 40.4518 -76.7872 10° North  Level Estimated
06:49PM 40.4992 -76.7660 10° North  Level Estimated
06:50PM 40.5466 -76.7448 10° North  Level Estimated
06:51PM 40.5939 -76.7235 10° North  Level Estimated
06:52PM 40.6413 -76.7022 10° North  Level Estimated
06:53PM 40.6887 -76.6809 10° North  Level Estimated
06:54PM 40.7361 -76.6596 10° North  Level Estimated
06:55PM 40.7834 -76.6382 10° North  Level Estimated
06:56PM 40.8308 -76.6168 10° North  Level Estimated
06:57PM 40.8782 -76.5954 10° North  Level Estimated
06:58PM 40.9255 -76.5739 10° North  Level Estimated
06:59PM 40.9729 -76.5524 10° North  Level Estimated
07:00PM 41.0202 -76.5309 10° North  Level Estimated
07:01PM 41.0676 -76.5093 10° North  Level Estimated
07:02PM 41.1149 -76.4877 10° North  Level Estimated
07:03PM 41.1622 -76.4661 10° North  Level Estimated
07:04PM 41.2095 -76.4445 10° North  Level Estimated
07:05PM 41.2569 -76.4228 10° North  Level Estimated
07:06PM 41.3042 -76.4011 10° North  Level Estimated
07:07PM 41.3515 -76.3793 10° North  Level Estimated
07:08PM 41.3988 -76.3576 10° North  Level Estimated
07:09PM 41.4461 -76.3357 10° North  Level Estimated
07:10PM 41.4935 -76.3139 10° North  Level Estimated
07:11PM 41.5407 -76.2920 10° North  Level Estimated
07:12PM 41.5881 -76.2701 10° North  Level Estimated
07:13PM 41.6353 -76.2482 10° North  Level Estimated
07:14PM 41.6826 -76.2262 10° North  Level Estimated
07:15PM 41.7299 -76.2042 10° North  Level Estimated
07:16PM 41.7772 -76.1822 10° North  Level Estimated
07:17PM 41.8245 -76.1601 10° North  Level Estimated
07:18PM 41.8717 -76.1380 10° North  Level Estimated
07:19PM 41.9190 -76.1159 10° North  Level Estimated
07:20PM 41.9663 -76.0937 10° North  Level Estimated